sensor_id;sensor_type;location;lat;lon;timestamp;temperature;humidity
23283;DHT22;11810;51.178;3.878;2023-03-23T00:01:09;13.00;99.90
23283;DHT22;11810;51.178;3.878;2023-03-23T00:03:40;13.10;99.90
23283;DHT22;11810;51.178;3.878;2023-03-23T00:06:07;13.10;99.90
23283;DHT22;11810;51.178;3.878;2023-03-23T00:08:35;13.10;99.90
23283;DHT22;11810;51.178;3.878;2023-03-23T00:11:17;13.10;99.90
23283;DHT22;11810;51.178;3.878;2023-03-23T00:13:45;13.10;99.90
23283;DHT22;11810;51.178;3.878;2023-03-23T00:16:14;13.00;99.90
23283;DHT22;11810;51.178;3.878;2023-03-23T00:18:50;13.00;99.90
23283;DHT22;11810;51.178;3.878;2023-03-23T00:21:20;13.00;99.90
23283;DHT22;11810;51.178;3.878;2023-03-23T00:23:51;13.10;99.90
23283;DHT22;11810;51.178;3.878;2023-03-23T00:26:17;13.10;99.90
23283;DHT22;11810;51.178;3.878;2023-03-23T00:28:43;13.10;99.90
23283;DHT22;11810;51.178;3.878;2023-03-23T00:31:12;13.10;99.90
23283;DHT22;11810;51.178;3.878;2023-03-23T00:33:39;13.00;99.90
23283;DHT22;11810;51.178;3.878;2023-03-23T00:36:11;13.10;99.90
23283;DHT22;11810;51.178;3.878;2023-03-23T00:38:38;13.00;99.90
23283;DHT22;11810;51.178;3.878;2023-03-23T00:41:05;13.00;99.90
23283;DHT22;11810;51.178;3.878;2023-03-23T00:43:32;13.00;99.90
23283;DHT22;11810;51.178;3.878;2023-03-23T00:46:01;12.90;99.90
23283;DHT22;11810;51.178;3.878;2023-03-23T00:48:29;12.90;99.90
23283;DHT22;11810;51.178;3.878;2023-03-23T00:50:55;12.80;99.90
23283;DHT22;11810;51.178;3.878;2023-03-23T00:53:22;12.80;99.90
23283;DHT22;11810;51.178;3.878;2023-03-23T00:55:48;12.80;99.90
23283;DHT22;11810;51.178;3.878;2023-03-23T00:58:15;13.00;99.90
23283;DHT22;11810;51.178;3.878;2023-03-23T01:00:42;12.90;99.90
23283;DHT22;11810;51.178;3.878;2023-03-23T01:03:09;12.80;99.90
23283;DHT22;11810;51.178;3.878;2023-03-23T01:05:44;12.90;99.90
23283;DHT22;11810;51.178;3.878;2023-03-23T01:08:13;12.90;99.90
23283;DHT22;11810;51.178;3.878;2023-03-23T01:10:39;12.80;99.90
23283;DHT22;11810;51.178;3.878;2023-03-23T01:13:07;12.90;99.90
23283;DHT22;11810;51.178;3.878;2023-03-23T01:15:33;12.90;99.90
23283;DHT22;11810;51.178;3.878;2023-03-23T01:17:59;12.90;99.90
23283;DHT22;11810;51.178;3.878;2023-03-23T01:20:25;13.10;99.90
23283;DHT22;11810;51.178;3.878;2023-03-23T01:22:58;13.00;99.90
23283;DHT22;11810;51.178;3.878;2023-03-23T01:25:30;12.90;99.90
23283;DHT22;11810;51.178;3.878;2023-03-23T01:27:57;12.90;99.90
23283;DHT22;11810;51.178;3.878;2023-03-23T01:30:24;12.90;99.90
23283;DHT22;11810;51.178;3.878;2023-03-23T01:32:51;12.90;99.90
23283;DHT22;11810;51.178;3.878;2023-03-23T01:35:17;12.90;99.90
23283;DHT22;11810;51.178;3.878;2023-03-23T01:37:43;12.90;99.90
23283;DHT22;11810;51.178;3.878;2023-03-23T01:40:10;13.00;99.90
23283;DHT22;11810;51.178;3.878;2023-03-23T01:42:38;13.10;99.90
23283;DHT22;11810;51.178;3.878;2023-03-23T01:47:51;13.10;99.90
23283;DHT22;11810;51.178;3.878;2023-03-23T01:50:21;13.10;99.90
23283;DHT22;11810;51.178;3.878;2023-03-23T01:52:53;13.00;99.90
23283;DHT22;11810;51.178;3.878;2023-03-23T01:55:21;13.00;99.90
23283;DHT22;11810;51.178;3.878;2023-03-23T01:57:48;13.00;99.90
23283;DHT22;11810;51.178;3.878;2023-03-23T02:00:15;12.90;99.90
23283;DHT22;11810;51.178;3.878;2023-03-23T02:02:43;13.00;99.90
23283;DHT22;11810;51.178;3.878;2023-03-23T02:05:14;12.90;99.90
23283;DHT22;11810;51.178;3.878;2023-03-23T02:07:41;13.00;99.90
23283;DHT22;11810;51.178;3.878;2023-03-23T02:10:08;13.00;99.90
23283;DHT22;11810;51.178;3.878;2023-03-23T02:12:34;13.00;99.90
23283;DHT22;11810;51.178;3.878;2023-03-23T02:15:00;13.00;99.90
23283;DHT22;11810;51.178;3.878;2023-03-23T02:17:30;13.00;99.90
23283;DHT22;11810;51.178;3.878;2023-03-23T02:34:26;13.00;99.90
23283;DHT22;11810;51.178;3.878;2023-03-23T02:39:32;12.90;99.90
23283;DHT22;11810;51.178;3.878;2023-03-23T02:42:06;12.80;99.90
23283;DHT22;11810;51.178;3.878;2023-03-23T02:44:35;12.90;99.90
23283;DHT22;11810;51.178;3.878;2023-03-23T02:47:07;12.90;99.90
23283;DHT22;11810;51.178;3.878;2023-03-23T02:49:36;13.00;99.90
23283;DHT22;11810;51.178;3.878;2023-03-23T02:52:12;12.90;99.90
23283;DHT22;11810;51.178;3.878;2023-03-23T02:54:46;13.00;99.90
23283;DHT22;11810;51.178;3.878;2023-03-23T02:57:13;13.00;99.90
23283;DHT22;11810;51.178;3.878;2023-03-23T02:59:40;13.00;99.90
23283;DHT22;11810;51.178;3.878;2023-03-23T03:02:18;13.00;99.90
23283;DHT22;11810;51.178;3.878;2023-03-23T03:10:42;13.00;99.90
23283;DHT22;11810;51.178;3.878;2023-03-23T03:13:33;13.00;99.90
23283;DHT22;11810;51.178;3.878;2023-03-23T03:18:49;12.90;99.90
23283;DHT22;11810;51.178;3.878;2023-03-23T03:21:17;13.00;99.90
23283;DHT22;11810;51.178;3.878;2023-03-23T03:23:47;13.00;99.90
23283;DHT22;11810;51.178;3.878;2023-03-23T03:26:15;13.10;99.90
23283;DHT22;11810;51.178;3.878;2023-03-23T03:28:44;13.10;99.90
23283;DHT22;11810;51.178;3.878;2023-03-23T03:31:15;13.10;99.90
23283;DHT22;11810;51.178;3.878;2023-03-23T03:33:42;13.00;99.90
23283;DHT22;11810;51.178;3.878;2023-03-23T03:36:21;13.00;99.90
23283;DHT22;11810;51.178;3.878;2023-03-23T03:38:50;12.90;99.90
23283;DHT22;11810;51.178;3.878;2023-03-23T03:41:17;13.00;99.90
23283;DHT22;11810;51.178;3.878;2023-03-23T03:43:43;13.00;99.90
23283;DHT22;11810;51.178;3.878;2023-03-23T03:46:09;13.00;99.90
23283;DHT22;11810;51.178;3.878;2023-03-23T03:48:35;13.10;99.90
23283;DHT22;11810;51.178;3.878;2023-03-23T03:51:01;12.90;99.90
23283;DHT22;11810;51.178;3.878;2023-03-23T03:53:28;12.90;99.90
23283;DHT22;11810;51.178;3.878;2023-03-23T03:55:54;12.80;99.90
23283;DHT22;11810;51.178;3.878;2023-03-23T03:58:26;12.50;99.90
23283;DHT22;11810;51.178;3.878;2023-03-23T04:00:58;12.40;99.90
23283;DHT22;11810;51.178;3.878;2023-03-23T04:03:25;12.40;99.90
23283;DHT22;11810;51.178;3.878;2023-03-23T04:05:53;12.40;99.90
23283;DHT22;11810;51.178;3.878;2023-03-23T04:08:22;12.30;99.90
23283;DHT22;11810;51.178;3.878;2023-03-23T04:10:48;12.30;99.90
23283;DHT22;11810;51.178;3.878;2023-03-23T04:13:14;12.30;99.90
23283;DHT22;11810;51.178;3.878;2023-03-23T04:15:41;12.30;99.90
23283;DHT22;11810;51.178;3.878;2023-03-23T04:18:07;12.30;99.90
23283;DHT22;11810;51.178;3.878;2023-03-23T04:20:34;12.40;99.90
23283;DHT22;11810;51.178;3.878;2023-03-23T04:23:00;12.40;99.90
23283;DHT22;11810;51.178;3.878;2023-03-23T04:25:27;12.40;99.90
23283;DHT22;11810;51.178;3.878;2023-03-23T04:27:53;12.40;99.90
23283;DHT22;11810;51.178;3.878;2023-03-23T04:30:21;12.40;99.90
23283;DHT22;11810;51.178;3.878;2023-03-23T04:32:49;12.40;99.90
23283;DHT22;11810;51.178;3.878;2023-03-23T04:35:22;12.40;99.90
23283;DHT22;11810;51.178;3.878;2023-03-23T04:37:50;12.40;99.90
23283;DHT22;11810;51.178;3.878;2023-03-23T04:40:16;12.50;99.90
23283;DHT22;11810;51.178;3.878;2023-03-23T04:42:44;12.50;99.90
23283;DHT22;11810;51.178;3.878;2023-03-23T04:45:15;12.40;99.90
23283;DHT22;11810;51.178;3.878;2023-03-23T04:47:42;12.30;99.90
23283;DHT22;11810;51.178;3.878;2023-03-23T04:50:16;12.30;99.90
23283;DHT22;11810;51.178;3.878;2023-03-23T04:52:42;12.30;99.90
23283;DHT22;11810;51.178;3.878;2023-03-23T04:55:12;12.20;99.90
23283;DHT22;11810;51.178;3.878;2023-03-23T04:57:38;12.10;99.90
23283;DHT22;11810;51.178;3.878;2023-03-23T05:00:05;12.10;99.90
23283;DHT22;11810;51.178;3.878;2023-03-23T05:02:37;11.90;99.90
23283;DHT22;11810;51.178;3.878;2023-03-23T05:05:09;11.90;99.90
23283;DHT22;11810;51.178;3.878;2023-03-23T05:07:37;11.90;99.90
23283;DHT22;11810;51.178;3.878;2023-03-23T05:10:04;11.80;99.90
23283;DHT22;11810;51.178;3.878;2023-03-23T05:12:31;11.90;99.90
23283;DHT22;11810;51.178;3.878;2023-03-23T05:14:57;11.80;99.90
23283;DHT22;11810;51.178;3.878;2023-03-23T05:17:23;11.90;99.90
23283;DHT22;11810;51.178;3.878;2023-03-23T05:19:50;11.90;99.90
23283;DHT22;11810;51.178;3.878;2023-03-23T05:22:18;12.00;99.90
23283;DHT22;11810;51.178;3.878;2023-03-23T05:24:47;12.00;99.90
23283;DHT22;11810;51.178;3.878;2023-03-23T05:27:13;11.90;99.90
23283;DHT22;11810;51.178;3.878;2023-03-23T05:29:40;11.90;99.90
23283;DHT22;11810;51.178;3.878;2023-03-23T05:32:07;12.00;99.90
23283;DHT22;11810;51.178;3.878;2023-03-23T05:34:36;12.00;99.90
23283;DHT22;11810;51.178;3.878;2023-03-23T05:37:03;11.90;99.90
23283;DHT22;11810;51.178;3.878;2023-03-23T05:39:30;12.00;99.90
23283;DHT22;11810;51.178;3.878;2023-03-23T05:41:56;11.90;99.90
23283;DHT22;11810;51.178;3.878;2023-03-23T05:44:22;11.90;99.90
23283;DHT22;11810;51.178;3.878;2023-03-23T05:46:49;11.80;99.90
23283;DHT22;11810;51.178;3.878;2023-03-23T05:49:16;11.70;99.90
23283;DHT22;11810;51.178;3.878;2023-03-23T05:51:43;11.60;99.90
23283;DHT22;11810;51.178;3.878;2023-03-23T05:54:10;11.70;99.90
23283;DHT22;11810;51.178;3.878;2023-03-23T05:56:36;11.50;99.90
23283;DHT22;11810;51.178;3.878;2023-03-23T05:59:02;11.50;99.90
23283;DHT22;11810;51.178;3.878;2023-03-23T06:01:29;11.50;99.90
23283;DHT22;11810;51.178;3.878;2023-03-23T06:03:55;11.50;99.90
23283;DHT22;11810;51.178;3.878;2023-03-23T06:06:28;11.40;99.90
23283;DHT22;11810;51.178;3.878;2023-03-23T06:08:55;11.40;99.90
23283;DHT22;11810;51.178;3.878;2023-03-23T06:11:23;11.30;99.90
23283;DHT22;11810;51.178;3.878;2023-03-23T06:13:50;11.20;99.90
23283;DHT22;11810;51.178;3.878;2023-03-23T06:16:16;11.00;99.90
23283;DHT22;11810;51.178;3.878;2023-03-23T06:18:42;11.00;99.90
23283;DHT22;11810;51.178;3.878;2023-03-23T06:21:09;11.00;99.90
23283;DHT22;11810;51.178;3.878;2023-03-23T06:23:36;11.00;99.90
23283;DHT22;11810;51.178;3.878;2023-03-23T06:26:07;10.90;99.90
23283;DHT22;11810;51.178;3.878;2023-03-23T06:28:33;10.90;99.90
23283;DHT22;11810;51.178;3.878;2023-03-23T06:31:04;10.80;99.90
23283;DHT22;11810;51.178;3.878;2023-03-23T06:33:33;10.80;99.90
23283;DHT22;11810;51.178;3.878;2023-03-23T06:35:59;10.80;99.90
23283;DHT22;11810;51.178;3.878;2023-03-23T06:38:26;10.70;99.90
23283;DHT22;11810;51.178;3.878;2023-03-23T06:40:53;10.80;99.90
23283;DHT22;11810;51.178;3.878;2023-03-23T06:43:20;10.90;99.90
23283;DHT22;11810;51.178;3.878;2023-03-23T06:45:46;10.90;99.90
23283;DHT22;11810;51.178;3.878;2023-03-23T06:48:12;10.90;99.90
23283;DHT22;11810;51.178;3.878;2023-03-23T06:50:41;11.00;99.90
23283;DHT22;11810;51.178;3.878;2023-03-23T06:53:07;11.00;99.90
23283;DHT22;11810;51.178;3.878;2023-03-23T06:55:33;10.90;99.90
23283;DHT22;11810;51.178;3.878;2023-03-23T06:57:59;11.00;99.90
23283;DHT22;11810;51.178;3.878;2023-03-23T07:00:26;11.00;99.90
23283;DHT22;11810;51.178;3.878;2023-03-23T07:02:52;11.20;99.90
23283;DHT22;11810;51.178;3.878;2023-03-23T07:05:18;11.20;99.90
23283;DHT22;11810;51.178;3.878;2023-03-23T07:07:45;11.20;99.90
23283;DHT22;11810;51.178;3.878;2023-03-23T07:10:11;11.10;99.90
23283;DHT22;11810;51.178;3.878;2023-03-23T07:12:37;11.00;99.90
23283;DHT22;11810;51.178;3.878;2023-03-23T07:15:04;11.00;99.90
23283;DHT22;11810;51.178;3.878;2023-03-23T07:17:30;11.00;99.90
23283;DHT22;11810;51.178;3.878;2023-03-23T07:19:57;11.00;99.90
23283;DHT22;11810;51.178;3.878;2023-03-23T07:22:22;11.00;99.90
23283;DHT22;11810;51.178;3.878;2023-03-23T07:24:48;11.00;99.90
23283;DHT22;11810;51.178;3.878;2023-03-23T07:27:15;10.90;99.90
23283;DHT22;11810;51.178;3.878;2023-03-23T07:29:41;11.00;99.90
23283;DHT22;11810;51.178;3.878;2023-03-23T07:32:10;10.90;99.90
23283;DHT22;11810;51.178;3.878;2023-03-23T07:34:37;11.00;99.90
23283;DHT22;11810;51.178;3.878;2023-03-23T07:37:04;11.00;99.90
23283;DHT22;11810;51.178;3.878;2023-03-23T07:39:30;11.00;99.90
23283;DHT22;11810;51.178;3.878;2023-03-23T07:41:57;11.00;99.90
23283;DHT22;11810;51.178;3.878;2023-03-23T07:44:23;11.10;99.90
23283;DHT22;11810;51.178;3.878;2023-03-23T07:46:49;11.20;99.90
23283;DHT22;11810;51.178;3.878;2023-03-23T07:49:16;11.20;99.90
23283;DHT22;11810;51.178;3.878;2023-03-23T07:51:43;11.40;99.90
23283;DHT22;11810;51.178;3.878;2023-03-23T07:54:09;11.50;99.90
23283;DHT22;11810;51.178;3.878;2023-03-23T07:56:37;11.50;99.90
23283;DHT22;11810;51.178;3.878;2023-03-23T07:59:06;11.50;99.90
23283;DHT22;11810;51.178;3.878;2023-03-23T08:01:32;11.50;99.90
23283;DHT22;11810;51.178;3.878;2023-03-23T08:03:59;11.50;99.90
23283;DHT22;11810;51.178;3.878;2023-03-23T08:06:26;11.70;99.90
23283;DHT22;11810;51.178;3.878;2023-03-23T08:08:52;11.90;99.90
23283;DHT22;11810;51.178;3.878;2023-03-23T08:11:19;11.90;99.90
23283;DHT22;11810;51.178;3.878;2023-03-23T08:13:46;12.00;99.90
23283;DHT22;11810;51.178;3.878;2023-03-23T08:16:12;12.20;99.90
23283;DHT22;11810;51.178;3.878;2023-03-23T08:18:39;13.10;99.90
23283;DHT22;11810;51.178;3.878;2023-03-23T08:21:06;14.20;99.90
23283;DHT22;11810;51.178;3.878;2023-03-23T08:23:36;15.20;99.90
23283;DHT22;11810;51.178;3.878;2023-03-23T08:26:04;15.80;99.90
23283;DHT22;11810;51.178;3.878;2023-03-23T08:28:32;15.80;99.90
23283;DHT22;11810;51.178;3.878;2023-03-23T08:30:58;16.20;99.90
23283;DHT22;11810;51.178;3.878;2023-03-23T08:33:25;16.80;99.90
23283;DHT22;11810;51.178;3.878;2023-03-23T08:35:58;16.90;99.90
23283;DHT22;11810;51.178;3.878;2023-03-23T08:38:24;17.10;99.90
23283;DHT22;11810;51.178;3.878;2023-03-23T08:40:51;17.40;99.90
23283;DHT22;11810;51.178;3.878;2023-03-23T08:43:18;17.00;99.90
23283;DHT22;11810;51.178;3.878;2023-03-23T08:45:43;16.90;99.90
23283;DHT22;11810;51.178;3.878;2023-03-23T08:48:09;17.10;99.90
23283;DHT22;11810;51.178;3.878;2023-03-23T08:50:36;17.10;99.90
23283;DHT22;11810;51.178;3.878;2023-03-23T08:53:02;16.70;99.90
23283;DHT22;11810;51.178;3.878;2023-03-23T08:55:29;16.50;99.90
23283;DHT22;11810;51.178;3.878;2023-03-23T08:57:54;16.80;99.90
23283;DHT22;11810;51.178;3.878;2023-03-23T09:00:22;17.00;99.90
23283;DHT22;11810;51.178;3.878;2023-03-23T09:02:52;16.60;99.90
23283;DHT22;11810;51.178;3.878;2023-03-23T09:05:22;16.70;99.90
23283;DHT22;11810;51.178;3.878;2023-03-23T09:07:51;17.20;99.90
23283;DHT22;11810;51.178;3.878;2023-03-23T09:10:18;17.40;99.90
23283;DHT22;11810;51.178;3.878;2023-03-23T09:12:45;16.80;99.90
23283;DHT22;11810;51.178;3.878;2023-03-23T09:15:14;16.50;99.90
23283;DHT22;11810;51.178;3.878;2023-03-23T09:17:42;16.60;99.90
23283;DHT22;11810;51.178;3.878;2023-03-23T09:20:10;16.00;99.90
23283;DHT22;11810;51.178;3.878;2023-03-23T09:22:39;15.70;99.90
23283;DHT22;11810;51.178;3.878;2023-03-23T09:25:06;15.40;99.90
23283;DHT22;11810;51.178;3.878;2023-03-23T09:27:32;15.00;99.90
23283;DHT22;11810;51.178;3.878;2023-03-23T09:29:59;15.20;99.90
23283;DHT22;11810;51.178;3.878;2023-03-23T09:32:26;15.00;99.90
23283;DHT22;11810;51.178;3.878;2023-03-23T09:34:53;14.80;99.90
23283;DHT22;11810;51.178;3.878;2023-03-23T09:37:21;15.00;99.90
23283;DHT22;11810;51.178;3.878;2023-03-23T09:39:47;15.90;99.90
23283;DHT22;11810;51.178;3.878;2023-03-23T09:42:50;16.60;99.90
23283;DHT22;11810;51.178;3.878;2023-03-23T09:53:41;16.80;99.90
23283;DHT22;11810;51.178;3.878;2023-03-23T09:56:13;17.50;99.90
23283;DHT22;11810;51.178;3.878;2023-03-23T09:58:46;17.60;99.90
23283;DHT22;11810;51.178;3.878;2023-03-23T10:01:32;17.60;99.90
23283;DHT22;11810;51.178;3.878;2023-03-23T10:04:28;17.40;99.90
23283;DHT22;11810;51.178;3.878;2023-03-23T10:07:12;16.90;99.90
23283;DHT22;11810;51.178;3.878;2023-03-23T10:09:40;16.40;99.90
23283;DHT22;11810;51.178;3.878;2023-03-23T10:15:00;16.30;99.90
23283;DHT22;11810;51.178;3.878;2023-03-23T10:17:52;15.90;99.90
23283;DHT22;11810;51.178;3.878;2023-03-23T10:29:24;16.20;99.90
23283;DHT22;11810;51.178;3.878;2023-03-23T10:31:53;16.60;99.90
23283;DHT22;11810;51.178;3.878;2023-03-23T10:37:01;16.50;99.90
23283;DHT22;11810;51.178;3.878;2023-03-23T10:39:31;16.90;99.90
23283;DHT22;11810;51.178;3.878;2023-03-23T10:42:01;16.60;99.90
23283;DHT22;11810;51.178;3.878;2023-03-23T10:44:33;16.90;99.90
23283;DHT22;11810;51.178;3.878;2023-03-23T10:47:02;16.90;99.90
23283;DHT22;11810;51.178;3.878;2023-03-23T10:55:22;18.20;99.90
23283;DHT22;11810;51.178;3.878;2023-03-23T11:00:31;18.90;99.90
23283;DHT22;11810;51.178;3.878;2023-03-23T11:03:46;19.00;99.90
23283;DHT22;11810;51.178;3.878;2023-03-23T11:05:57;18.70;99.90
23283;DHT22;11810;51.178;3.878;2023-03-23T11:08:30;18.00;99.90
23283;DHT22;11810;51.178;3.878;2023-03-23T11:11:09;16.90;99.90
23283;DHT22;11810;51.178;3.878;2023-03-23T11:13:41;16.40;99.90
23283;DHT22;11810;51.178;3.878;2023-03-23T11:16:09;16.00;99.90
23283;DHT22;11810;51.178;3.878;2023-03-23T11:18:42;16.10;99.90
23283;DHT22;11810;51.178;3.878;2023-03-23T11:21:11;17.20;99.90
23283;DHT22;11810;51.178;3.878;2023-03-23T11:23:40;18.20;99.90
23283;DHT22;11810;51.178;3.878;2023-03-23T11:26:27;19.30;99.90
23283;DHT22;11810;51.178;3.878;2023-03-23T11:28:58;20.90;99.90
23283;DHT22;11810;51.178;3.878;2023-03-23T11:31:38;22.10;99.90
23283;DHT22;11810;51.178;3.878;2023-03-23T11:34:13;22.70;99.90
23283;DHT22;11810;51.178;3.878;2023-03-23T11:37:04;23.50;99.90
23283;DHT22;11810;51.178;3.878;2023-03-23T11:42:02;24.20;99.90
23283;DHT22;11810;51.178;3.878;2023-03-23T11:44:46;24.20;99.90
23283;DHT22;11810;51.178;3.878;2023-03-23T11:47:22;24.10;99.90
23283;DHT22;11810;51.178;3.878;2023-03-23T11:50:21;22.70;99.90
23283;DHT22;11810;51.178;3.878;2023-03-23T11:53:12;21.50;99.90
23283;DHT22;11810;51.178;3.878;2023-03-23T11:58:13;18.50;99.90
23283;DHT22;11810;51.178;3.878;2023-03-23T12:03:20;16.70;99.90
23283;DHT22;11810;51.178;3.878;2023-03-23T12:06:12;16.30;99.90
23283;DHT22;11810;51.178;3.878;2023-03-23T12:08:45;16.10;99.90
23283;DHT22;11810;51.178;3.878;2023-03-23T12:11:25;16.50;99.90
23283;DHT22;11810;51.178;3.878;2023-03-23T12:14:11;17.20;99.90
23283;DHT22;11810;51.178;3.878;2023-03-23T12:17:06;17.50;99.90
23283;DHT22;11810;51.178;3.878;2023-03-23T12:19:58;17.90;99.90
23283;DHT22;11810;51.178;3.878;2023-03-23T12:23:00;18.90;99.90
23283;DHT22;11810;51.178;3.878;2023-03-23T12:39:52;20.30;99.90
23283;DHT22;11810;51.178;3.878;2023-03-23T12:42:02;20.80;99.90
23283;DHT22;11810;51.178;3.878;2023-03-23T12:44:50;20.30;99.90
23283;DHT22;11810;51.178;3.878;2023-03-23T12:48:09;18.70;99.90
23283;DHT22;11810;51.178;3.878;2023-03-23T12:53:19;18.70;99.90
23283;DHT22;11810;51.178;3.878;2023-03-23T13:02:20;18.70;99.90
23283;DHT22;11810;51.178;3.878;2023-03-23T13:05:24;18.70;99.90
23283;DHT22;11810;51.178;3.878;2023-03-23T13:08:14;19.30;99.90
23283;DHT22;11810;51.178;3.878;2023-03-23T13:10:49;19.30;99.90
23283;DHT22;11810;51.178;3.878;2023-03-23T13:13:25;19.70;99.90
23283;DHT22;11810;51.178;3.878;2023-03-23T13:16:00;20.10;99.90
23283;DHT22;11810;51.178;3.878;2023-03-23T13:18:59;19.70;99.90
23283;DHT22;11810;51.178;3.878;2023-03-23T13:21:32;19.30;99.90
23283;DHT22;11810;51.178;3.878;2023-03-23T13:24:03;19.10;99.90
23283;DHT22;11810;51.178;3.878;2023-03-23T13:26:30;18.60;99.90
23283;DHT22;11810;51.178;3.878;2023-03-23T13:29:05;18.50;99.90
23283;DHT22;11810;51.178;3.878;2023-03-23T13:31:36;18.40;99.90
23283;DHT22;11810;51.178;3.878;2023-03-23T13:34:10;18.90;99.90
23283;DHT22;11810;51.178;3.878;2023-03-23T13:36:40;19.40;99.90
23283;DHT22;11810;51.178;3.878;2023-03-23T13:39:21;19.60;99.90
23283;DHT22;11810;51.178;3.878;2023-03-23T13:42:02;18.60;99.90
23283;DHT22;11810;51.178;3.878;2023-03-23T13:52:35;16.70;99.90
23283;DHT22;11810;51.178;3.878;2023-03-23T13:57:57;16.30;99.90
23283;DHT22;11810;51.178;3.878;2023-03-23T14:10:39;17.00;99.90
23283;DHT22;11810;51.178;3.878;2023-03-23T14:13:19;17.50;99.90
23283;DHT22;11810;51.178;3.878;2023-03-23T14:16:01;18.20;99.90
23283;DHT22;11810;51.178;3.878;2023-03-23T14:18:35;18.20;99.90
23283;DHT22;11810;51.178;3.878;2023-03-23T14:21:03;18.10;99.90
23283;DHT22;11810;51.178;3.878;2023-03-23T14:23:34;18.00;99.90
23283;DHT22;11810;51.178;3.878;2023-03-23T14:26:10;18.50;99.90
23283;DHT22;11810;51.178;3.878;2023-03-23T14:28:40;18.70;99.90
23283;DHT22;11810;51.178;3.878;2023-03-23T14:31:32;18.30;99.90
23283;DHT22;11810;51.178;3.878;2023-03-23T14:34:04;18.40;99.90
23283;DHT22;11810;51.178;3.878;2023-03-23T14:36:33;18.70;99.90
23283;DHT22;11810;51.178;3.878;2023-03-23T14:39:06;19.20;99.90
23283;DHT22;11810;51.178;3.878;2023-03-23T14:41:34;19.60;99.90
23283;DHT22;11810;51.178;3.878;2023-03-23T14:44:02;19.80;99.90
23283;DHT22;11810;51.178;3.878;2023-03-23T14:46:30;20.10;99.90
23283;DHT22;11810;51.178;3.878;2023-03-23T14:48:58;20.20;99.90
23283;DHT22;11810;51.178;3.878;2023-03-23T14:51:25;20.20;99.90
23283;DHT22;11810;51.178;3.878;2023-03-23T14:53:53;20.00;99.90
23283;DHT22;11810;51.178;3.878;2023-03-23T14:56:21;20.20;99.90
23283;DHT22;11810;51.178;3.878;2023-03-23T14:58:52;20.30;99.90
23283;DHT22;11810;51.178;3.878;2023-03-23T15:01:20;20.30;99.90
23283;DHT22;11810;51.178;3.878;2023-03-23T15:06:34;20.30;99.90
23283;DHT22;11810;51.178;3.878;2023-03-23T15:09:05;20.30;99.90
23283;DHT22;11810;51.178;3.878;2023-03-23T15:11:34;20.20;99.90
23283;DHT22;11810;51.178;3.878;2023-03-23T15:14:15;20.20;99.90
23283;DHT22;11810;51.178;3.878;2023-03-23T15:16:46;20.00;99.90
23283;DHT22;11810;51.178;3.878;2023-03-23T15:19:24;19.50;99.90
23283;DHT22;11810;51.178;3.878;2023-03-23T15:24:26;18.40;99.90
23283;DHT22;11810;51.178;3.878;2023-03-23T15:26:53;17.80;99.90
23283;DHT22;11810;51.178;3.878;2023-03-23T15:29:22;17.60;99.90
23283;DHT22;11810;51.178;3.878;2023-03-23T15:31:54;17.50;99.90
23283;DHT22;11810;51.178;3.878;2023-03-23T15:36:56;17.70;99.90
23283;DHT22;11810;51.178;3.878;2023-03-23T15:39:22;17.60;99.90
23283;DHT22;11810;51.178;3.878;2023-03-23T15:41:51;17.50;99.90
23283;DHT22;11810;51.178;3.878;2023-03-23T15:44:32;17.40;99.90
23283;DHT22;11810;51.178;3.878;2023-03-23T15:47:18;17.20;99.90
23283;DHT22;11810;51.178;3.878;2023-03-23T15:49:46;17.00;99.90
23283;DHT22;11810;51.178;3.878;2023-03-23T15:52:13;16.90;99.90
23283;DHT22;11810;51.178;3.878;2023-03-23T15:54:47;16.80;99.90
23283;DHT22;11810;51.178;3.878;2023-03-23T15:57:13;16.80;99.90
23283;DHT22;11810;51.178;3.878;2023-03-23T15:59:39;17.00;99.90
23283;DHT22;11810;51.178;3.878;2023-03-23T16:02:05;17.20;99.90
23283;DHT22;11810;51.178;3.878;2023-03-23T16:04:31;17.30;99.90
23283;DHT22;11810;51.178;3.878;2023-03-23T16:06:58;17.40;99.90
23283;DHT22;11810;51.178;3.878;2023-03-23T16:09:25;17.10;99.90
23283;DHT22;11810;51.178;3.878;2023-03-23T16:11:51;16.90;99.90
23283;DHT22;11810;51.178;3.878;2023-03-23T16:14:17;16.80;99.90
23283;DHT22;11810;51.178;3.878;2023-03-23T16:16:48;16.40;99.90
23283;DHT22;11810;51.178;3.878;2023-03-23T16:19:15;16.10;99.90
23283;DHT22;11810;51.178;3.878;2023-03-23T16:21:41;15.50;99.90
23283;DHT22;11810;51.178;3.878;2023-03-23T16:24:08;15.30;99.90
23283;DHT22;11810;51.178;3.878;2023-03-23T16:26:35;15.10;99.90
23283;DHT22;11810;51.178;3.878;2023-03-23T16:29:01;14.90;99.90
23283;DHT22;11810;51.178;3.878;2023-03-23T16:31:28;14.70;99.90
23283;DHT22;11810;51.178;3.878;2023-03-23T16:33:54;14.70;99.90
23283;DHT22;11810;51.178;3.878;2023-03-23T16:36:20;14.90;99.90
23283;DHT22;11810;51.178;3.878;2023-03-23T16:38:46;14.90;99.90
23283;DHT22;11810;51.178;3.878;2023-03-23T16:41:12;15.10;99.90
23283;DHT22;11810;51.178;3.878;2023-03-23T16:43:38;15.10;99.90
23283;DHT22;11810;51.178;3.878;2023-03-23T16:46:04;15.10;99.90
23283;DHT22;11810;51.178;3.878;2023-03-23T16:48:30;15.20;99.90
23283;DHT22;11810;51.178;3.878;2023-03-23T16:50:56;15.30;99.90
23283;DHT22;11810;51.178;3.878;2023-03-23T16:53:22;15.30;99.90
23283;DHT22;11810;51.178;3.878;2023-03-23T16:55:51;15.20;99.90
23283;DHT22;11810;51.178;3.878;2023-03-23T16:58:17;15.30;99.90
23283;DHT22;11810;51.178;3.878;2023-03-23T17:00:46;15.40;99.90
23283;DHT22;11810;51.178;3.878;2023-03-23T17:03:12;15.30;99.90
23283;DHT22;11810;51.178;3.878;2023-03-23T17:05:38;15.40;99.90
23283;DHT22;11810;51.178;3.878;2023-03-23T17:08:04;15.30;99.90
23283;DHT22;11810;51.178;3.878;2023-03-23T17:10:30;15.30;99.90
23283;DHT22;11810;51.178;3.878;2023-03-23T17:12:56;15.10;99.90
23283;DHT22;11810;51.178;3.878;2023-03-23T17:15:22;15.20;99.90
23283;DHT22;11810;51.178;3.878;2023-03-23T17:17:50;15.20;99.90
23283;DHT22;11810;51.178;3.878;2023-03-23T17:20:17;15.20;99.90
23283;DHT22;11810;51.178;3.878;2023-03-23T17:22:43;15.30;99.90
23283;DHT22;11810;51.178;3.878;2023-03-23T17:25:09;15.20;99.90
23283;DHT22;11810;51.178;3.878;2023-03-23T17:27:36;15.10;99.90
23283;DHT22;11810;51.178;3.878;2023-03-23T17:30:05;15.10;99.90
23283;DHT22;11810;51.178;3.878;2023-03-23T17:32:31;15.10;99.90
23283;DHT22;11810;51.178;3.878;2023-03-23T17:34:57;15.20;99.90
23283;DHT22;11810;51.178;3.878;2023-03-23T17:37:23;15.20;99.90
23283;DHT22;11810;51.178;3.878;2023-03-23T17:39:50;15.20;99.90
23283;DHT22;11810;51.178;3.878;2023-03-23T17:42:16;15.20;99.90
23283;DHT22;11810;51.178;3.878;2023-03-23T17:44:43;15.20;99.90
23283;DHT22;11810;51.178;3.878;2023-03-23T17:47:10;15.20;99.90